sensor_id;sensor_type;location;lat;lon;timestamp;temperature;humidity
6106;DHT22;3083;51.508;7.966;2022-10-16T00:01:41;13.70;99.90
6106;DHT22;3083;51.508;7.966;2022-10-16T00:04:08;13.70;99.90
6106;DHT22;3083;51.508;7.966;2022-10-16T00:06:35;13.70;99.90
6106;DHT22;3083;51.508;7.966;2022-10-16T00:09:03;13.70;99.90
6106;DHT22;3083;51.508;7.966;2022-10-16T00:11:32;13.60;99.90
6106;DHT22;3083;51.508;7.966;2022-10-16T00:14:03;13.60;99.90
6106;DHT22;3083;51.508;7.966;2022-10-16T00:16:31;13.60;99.90
6106;DHT22;3083;51.508;7.966;2022-10-16T00:18:58;13.60;99.90
6106;DHT22;3083;51.508;7.966;2022-10-16T00:21:27;13.50;99.90
6106;DHT22;3083;51.508;7.966;2022-10-16T00:23:56;13.50;99.90
6106;DHT22;3083;51.508;7.966;2022-10-16T00:26:25;13.50;99.90
6106;DHT22;3083;51.508;7.966;2022-10-16T00:28:54;13.40;99.90
6106;DHT22;3083;51.508;7.966;2022-10-16T00:31:22;13.40;99.90
6106;DHT22;3083;51.508;7.966;2022-10-16T00:33:49;13.40;99.90
6106;DHT22;3083;51.508;7.966;2022-10-16T00:36:19;13.40;99.90
6106;DHT22;3083;51.508;7.966;2022-10-16T00:38:46;13.40;99.90
6106;DHT22;3083;51.508;7.966;2022-10-16T00:41:15;13.40;99.90
6106;DHT22;3083;51.508;7.966;2022-10-16T00:43:44;13.40;99.90
6106;DHT22;3083;51.508;7.966;2022-10-16T00:46:16;13.40;99.90
6106;DHT22;3083;51.508;7.966;2022-10-16T00:48:47;13.40;99.90
6106;DHT22;3083;51.508;7.966;2022-10-16T00:51:15;13.40;99.90
6106;DHT22;3083;51.508;7.966;2022-10-16T00:53:44;13.40;99.90
6106;DHT22;3083;51.508;7.966;2022-10-16T00:56:11;13.40;99.90
6106;DHT22;3083;51.508;7.966;2022-10-16T00:58:38;13.40;99.90
6106;DHT22;3083;51.508;7.966;2022-10-16T01:01:05;13.40;99.90
6106;DHT22;3083;51.508;7.966;2022-10-16T01:03:35;13.40;99.90
6106;DHT22;3083;51.508;7.966;2022-10-16T01:06:09;13.40;99.90
6106;DHT22;3083;51.508;7.966;2022-10-16T01:08:47;13.30;99.90
6106;DHT22;3083;51.508;7.966;2022-10-16T01:11:21;13.30;99.90
6106;DHT22;3083;51.508;7.966;2022-10-16T01:13:53;13.30;99.90
6106;DHT22;3083;51.508;7.966;2022-10-16T01:16:26;13.30;99.90
6106;DHT22;3083;51.508;7.966;2022-10-16T01:19:01;13.30;99.90
6106;DHT22;3083;51.508;7.966;2022-10-16T01:21:31;13.30;99.90
6106;DHT22;3083;51.508;7.966;2022-10-16T01:24:06;13.30;99.90
6106;DHT22;3083;51.508;7.966;2022-10-16T01:26:50;13.30;99.90
6106;DHT22;3083;51.508;7.966;2022-10-16T01:29:23;13.30;99.90
6106;DHT22;3083;51.508;7.966;2022-10-16T01:31:56;13.40;99.90
6106;DHT22;3083;51.508;7.966;2022-10-16T01:34:29;13.40;99.90
6106;DHT22;3083;51.508;7.966;2022-10-16T01:37:04;13.40;99.90
6106;DHT22;3083;51.508;7.966;2022-10-16T01:39:35;13.50;99.90
6106;DHT22;3083;51.508;7.966;2022-10-16T01:42:06;13.50;99.90
6106;DHT22;3083;51.508;7.966;2022-10-16T01:44:37;13.50;99.90
6106;DHT22;3083;51.508;7.966;2022-10-16T01:47:07;13.50;99.90
6106;DHT22;3083;51.508;7.966;2022-10-16T01:49:38;13.50;99.90
6106;DHT22;3083;51.508;7.966;2022-10-16T01:52:09;13.50;99.90
6106;DHT22;3083;51.508;7.966;2022-10-16T01:54:39;13.50;99.90
6106;DHT22;3083;51.508;7.966;2022-10-16T01:57:08;13.50;99.90
6106;DHT22;3083;51.508;7.966;2022-10-16T01:59:39;13.50;99.90
6106;DHT22;3083;51.508;7.966;2022-10-16T02:02:09;13.50;99.90
6106;DHT22;3083;51.508;7.966;2022-10-16T02:04:40;13.40;99.90
6106;DHT22;3083;51.508;7.966;2022-10-16T02:07:09;13.50;99.90
6106;DHT22;3083;51.508;7.966;2022-10-16T02:09:37;13.40;99.90
6106;DHT22;3083;51.508;7.966;2022-10-16T02:12:11;13.40;99.90
6106;DHT22;3083;51.508;7.966;2022-10-16T02:14:42;13.50;99.90
6106;DHT22;3083;51.508;7.966;2022-10-16T02:17:14;13.40;99.90
6106;DHT22;3083;51.508;7.966;2022-10-16T02:19:41;13.40;99.90
6106;DHT22;3083;51.508;7.966;2022-10-16T02:22:12;13.40;99.90
6106;DHT22;3083;51.508;7.966;2022-10-16T02:24:49;13.40;99.90
6106;DHT22;3083;51.508;7.966;2022-10-16T02:27:21;13.40;99.90
6106;DHT22;3083;51.508;7.966;2022-10-16T02:29:55;13.40;99.90
6106;DHT22;3083;51.508;7.966;2022-10-16T02:32:28;13.40;99.90
6106;DHT22;3083;51.508;7.966;2022-10-16T02:34:58;13.40;99.90
6106;DHT22;3083;51.508;7.966;2022-10-16T02:37:27;13.40;99.90
6106;DHT22;3083;51.508;7.966;2022-10-16T02:39:55;13.30;99.90
6106;DHT22;3083;51.508;7.966;2022-10-16T02:42:28;13.30;99.90
6106;DHT22;3083;51.508;7.966;2022-10-16T02:44:57;13.30;99.90
6106;DHT22;3083;51.508;7.966;2022-10-16T02:47:24;13.30;99.90
6106;DHT22;3083;51.508;7.966;2022-10-16T02:49:51;13.30;99.90
6106;DHT22;3083;51.508;7.966;2022-10-16T02:52:18;13.30;99.90
6106;DHT22;3083;51.508;7.966;2022-10-16T02:54:45;13.30;99.90
6106;DHT22;3083;51.508;7.966;2022-10-16T02:57:12;13.20;99.90
6106;DHT22;3083;51.508;7.966;2022-10-16T02:59:39;13.20;99.90
6106;DHT22;3083;51.508;7.966;2022-10-16T03:02:07;13.20;99.90
6106;DHT22;3083;51.508;7.966;2022-10-16T03:04:34;13.20;99.90
6106;DHT22;3083;51.508;7.966;2022-10-16T03:07:01;13.20;99.90
6106;DHT22;3083;51.508;7.966;2022-10-16T03:09:28;13.10;99.90
6106;DHT22;3083;51.508;7.966;2022-10-16T03:11:55;13.20;99.90
6106;DHT22;3083;51.508;7.966;2022-10-16T03:14:22;13.20;99.90
6106;DHT22;3083;51.508;7.966;2022-10-16T03:16:49;13.20;99.90
6106;DHT22;3083;51.508;7.966;2022-10-16T03:19:18;13.20;99.90
6106;DHT22;3083;51.508;7.966;2022-10-16T03:21:45;13.30;99.90
6106;DHT22;3083;51.508;7.966;2022-10-16T03:24:12;13.30;99.90
6106;DHT22;3083;51.508;7.966;2022-10-16T03:26:39;13.30;99.90
6106;DHT22;3083;51.508;7.966;2022-10-16T03:29:06;13.40;99.90
6106;DHT22;3083;51.508;7.966;2022-10-16T03:31:33;13.40;99.90
6106;DHT22;3083;51.508;7.966;2022-10-16T03:34:00;13.40;99.90
6106;DHT22;3083;51.508;7.966;2022-10-16T03:36:28;13.40;99.90
6106;DHT22;3083;51.508;7.966;2022-10-16T03:38:55;13.40;99.90
6106;DHT22;3083;51.508;7.966;2022-10-16T03:41:22;13.50;99.90
6106;DHT22;3083;51.508;7.966;2022-10-16T03:43:49;13.50;99.90
6106;DHT22;3083;51.508;7.966;2022-10-16T03:46:16;13.50;99.90
6106;DHT22;3083;51.508;7.966;2022-10-16T03:48:42;13.50;99.90
6106;DHT22;3083;51.508;7.966;2022-10-16T03:51:09;13.40;99.90
6106;DHT22;3083;51.508;7.966;2022-10-16T03:53:38;13.40;99.90
6106;DHT22;3083;51.508;7.966;2022-10-16T03:56:05;13.40;99.90
6106;DHT22;3083;51.508;7.966;2022-10-16T03:58:32;13.40;99.90
6106;DHT22;3083;51.508;7.966;2022-10-16T04:00:59;13.40;99.90
6106;DHT22;3083;51.508;7.966;2022-10-16T04:03:26;13.40;99.90
6106;DHT22;3083;51.508;7.966;2022-10-16T04:05:53;13.40;99.90
6106;DHT22;3083;51.508;7.966;2022-10-16T04:08:19;13.40;99.90
6106;DHT22;3083;51.508;7.966;2022-10-16T04:10:48;13.30;99.90
6106;DHT22;3083;51.508;7.966;2022-10-16T04:13:15;13.40;99.90
6106;DHT22;3083;51.508;7.966;2022-10-16T04:15:42;13.40;99.90
6106;DHT22;3083;51.508;7.966;2022-10-16T04:18:11;13.40;99.90
6106;DHT22;3083;51.508;7.966;2022-10-16T04:20:37;13.40;99.90
6106;DHT22;3083;51.508;7.966;2022-10-16T04:23:04;13.50;99.90
6106;DHT22;3083;51.508;7.966;2022-10-16T04:25:31;13.50;99.90
6106;DHT22;3083;51.508;7.966;2022-10-16T04:28:00;13.50;99.90
6106;DHT22;3083;51.508;7.966;2022-10-16T04:30:27;13.50;99.90
6106;DHT22;3083;51.508;7.966;2022-10-16T04:32:53;13.50;99.90
6106;DHT22;3083;51.508;7.966;2022-10-16T04:35:21;13.50;99.90
6106;DHT22;3083;51.508;7.966;2022-10-16T04:37:48;13.40;99.90
6106;DHT22;3083;51.508;7.966;2022-10-16T04:40:16;13.40;99.90
6106;DHT22;3083;51.508;7.966;2022-10-16T04:42:43;13.40;99.90
6106;DHT22;3083;51.508;7.966;2022-10-16T04:45:12;13.50;99.90
6106;DHT22;3083;51.508;7.966;2022-10-16T04:47:38;13.50;99.90
6106;DHT22;3083;51.508;7.966;2022-10-16T04:50:06;13.40;99.90
6106;DHT22;3083;51.508;7.966;2022-10-16T04:52:33;13.40;99.90
6106;DHT22;3083;51.508;7.966;2022-10-16T04:55:00;13.40;99.90
6106;DHT22;3083;51.508;7.966;2022-10-16T04:57:28;13.40;99.90
6106;DHT22;3083;51.508;7.966;2022-10-16T04:59:55;13.40;99.90
6106;DHT22;3083;51.508;7.966;2022-10-16T05:02:24;13.40;99.90
6106;DHT22;3083;51.508;7.966;2022-10-16T05:04:51;13.40;99.90
6106;DHT22;3083;51.508;7.966;2022-10-16T05:07:18;13.40;99.90
6106;DHT22;3083;51.508;7.966;2022-10-16T05:09:45;13.40;99.90
6106;DHT22;3083;51.508;7.966;2022-10-16T05:12:12;13.40;99.90
6106;DHT22;3083;51.508;7.966;2022-10-16T05:14:39;13.40;99.90
6106;DHT22;3083;51.508;7.966;2022-10-16T05:17:06;13.40;99.90
6106;DHT22;3083;51.508;7.966;2022-10-16T05:19:34;13.40;99.90
6106;DHT22;3083;51.508;7.966;2022-10-16T05:22:01;13.40;99.90
6106;DHT22;3083;51.508;7.966;2022-10-16T05:24:28;13.30;99.90
6106;DHT22;3083;51.508;7.966;2022-10-16T05:26:55;13.30;99.90
6106;DHT22;3083;51.508;7.966;2022-10-16T05:29:22;13.30;99.90
6106;DHT22;3083;51.508;7.966;2022-10-16T05:31:51;13.30;99.90
6106;DHT22;3083;51.508;7.966;2022-10-16T05:34:18;13.30;99.90
6106;DHT22;3083;51.508;7.966;2022-10-16T05:36:46;13.30;99.90
6106;DHT22;3083;51.508;7.966;2022-10-16T05:39:14;13.30;99.90
6106;DHT22;3083;51.508;7.966;2022-10-16T05:41:42;13.40;99.90
6106;DHT22;3083;51.508;7.966;2022-10-16T05:44:09;13.40;99.90
6106;DHT22;3083;51.508;7.966;2022-10-16T05:46:36;13.30;99.90
6106;DHT22;3083;51.508;7.966;2022-10-16T05:49:02;13.30;99.90
6106;DHT22;3083;51.508;7.966;2022-10-16T05:51:29;13.30;99.90
6106;DHT22;3083;51.508;7.966;2022-10-16T05:53:58;13.30;99.90
6106;DHT22;3083;51.508;7.966;2022-10-16T05:56:25;13.30;99.90
6106;DHT22;3083;51.508;7.966;2022-10-16T05:58:52;13.20;99.90
6106;DHT22;3083;51.508;7.966;2022-10-16T06:01:19;13.20;99.90
6106;DHT22;3083;51.508;7.966;2022-10-16T06:03:50;13.20;99.90
6106;DHT22;3083;51.508;7.966;2022-10-16T06:06:18;13.20;99.90
6106;DHT22;3083;51.508;7.966;2022-10-16T06:08:47;13.20;99.90
6106;DHT22;3083;51.508;7.966;2022-10-16T06:11:17;13.30;99.90
6106;DHT22;3083;51.508;7.966;2022-10-16T06:13:44;13.30;99.90
6106;DHT22;3083;51.508;7.966;2022-10-16T06:16:12;13.30;99.90
6106;DHT22;3083;51.508;7.966;2022-10-16T06:18:39;13.30;99.90
6106;DHT22;3083;51.508;7.966;2022-10-16T06:21:11;13.30;99.90
6106;DHT22;3083;51.508;7.966;2022-10-16T06:23:38;13.30;99.90
6106;DHT22;3083;51.508;7.966;2022-10-16T06:26:06;13.30;99.90
6106;DHT22;3083;51.508;7.966;2022-10-16T06:28:35;13.40;99.90
6106;DHT22;3083;51.508;7.966;2022-10-16T06:31:03;13.40;99.90
6106;DHT22;3083;51.508;7.966;2022-10-16T06:33:31;13.40;99.90
6106;DHT22;3083;51.508;7.966;2022-10-16T06:36:01;13.50;99.90
6106;DHT22;3083;51.508;7.966;2022-10-16T06:38:29;13.60;99.90
6106;DHT22;3083;51.508;7.966;2022-10-16T06:40:56;13.70;99.90
6106;DHT22;3083;51.508;7.966;2022-10-16T06:43:23;13.80;99.90
6106;DHT22;3083;51.508;7.966;2022-10-16T06:45:54;13.90;99.90
6106;DHT22;3083;51.508;7.966;2022-10-16T06:48:22;13.90;99.90
6106;DHT22;3083;51.508;7.966;2022-10-16T06:50:57;14.10;99.90
6106;DHT22;3083;51.508;7.966;2022-10-16T06:53:24;14.10;99.90
6106;DHT22;3083;51.508;7.966;2022-10-16T06:55:51;14.20;99.90
6106;DHT22;3083;51.508;7.966;2022-10-16T06:58:18;14.20;99.90
6106;DHT22;3083;51.508;7.966;2022-10-16T07:00:45;14.30;99.90
6106;DHT22;3083;51.508;7.966;2022-10-16T07:03:14;14.40;99.90
6106;DHT22;3083;51.508;7.966;2022-10-16T07:05:42;14.60;99.90
6106;DHT22;3083;51.508;7.966;2022-10-16T07:08:09;14.80;99.90
6106;DHT22;3083;51.508;7.966;2022-10-16T07:10:36;14.90;99.90
6106;DHT22;3083;51.508;7.966;2022-10-16T07:13:03;15.10;99.90
6106;DHT22;3083;51.508;7.966;2022-10-16T07:15:31;15.30;99.90
6106;DHT22;3083;51.508;7.966;2022-10-16T07:17:57;15.40;99.90
6106;DHT22;3083;51.508;7.966;2022-10-16T07:20:26;15.50;99.90
6106;DHT22;3083;51.508;7.966;2022-10-16T07:22:53;15.70;99.90
6106;DHT22;3083;51.508;7.966;2022-10-16T07:25:19;15.80;99.90
6106;DHT22;3083;51.508;7.966;2022-10-16T07:27:47;15.80;99.90
6106;DHT22;3083;51.508;7.966;2022-10-16T07:30:14;15.90;99.90
6106;DHT22;3083;51.508;7.966;2022-10-16T07:32:41;16.10;99.90
6106;DHT22;3083;51.508;7.966;2022-10-16T07:35:08;16.30;99.90
6106;DHT22;3083;51.508;7.966;2022-10-16T07:37:36;16.60;99.90
6106;DHT22;3083;51.508;7.966;2022-10-16T07:40:04;16.80;99.90
6106;DHT22;3083;51.508;7.966;2022-10-16T07:42:32;16.90;99.90
6106;DHT22;3083;51.508;7.966;2022-10-16T07:45:00;17.20;99.90
6106;DHT22;3083;51.508;7.966;2022-10-16T07:47:26;17.40;99.90
6106;DHT22;3083;51.508;7.966;2022-10-16T07:49:53;17.50;99.90
6106;DHT22;3083;51.508;7.966;2022-10-16T07:52:20;17.70;99.90
6106;DHT22;3083;51.508;7.966;2022-10-16T07:54:49;17.80;99.90
6106;DHT22;3083;51.508;7.966;2022-10-16T07:57:16;17.90;99.90
6106;DHT22;3083;51.508;7.966;2022-10-16T07:59:45;17.90;99.90
6106;DHT22;3083;51.508;7.966;2022-10-16T08:02:12;17.90;99.90
6106;DHT22;3083;51.508;7.966;2022-10-16T08:04:39;17.90;99.90
6106;DHT22;3083;51.508;7.966;2022-10-16T08:07:07;18.00;99.90
6106;DHT22;3083;51.508;7.966;2022-10-16T08:09:34;17.90;99.90
6106;DHT22;3083;51.508;7.966;2022-10-16T08:12:02;17.90;99.90
6106;DHT22;3083;51.508;7.966;2022-10-16T08:14:30;17.90;99.90
6106;DHT22;3083;51.508;7.966;2022-10-16T08:16:57;17.90;99.90
6106;DHT22;3083;51.508;7.966;2022-10-16T08:19:24;17.90;99.90
6106;DHT22;3083;51.508;7.966;2022-10-16T08:21:51;17.90;99.90
6106;DHT22;3083;51.508;7.966;2022-10-16T08:24:18;17.90;99.90
6106;DHT22;3083;51.508;7.966;2022-10-16T08:26:45;17.80;99.90
6106;DHT22;3083;51.508;7.966;2022-10-16T08:29:15;17.80;99.90
6106;DHT22;3083;51.508;7.966;2022-10-16T08:31:42;17.60;99.90
6106;DHT22;3083;51.508;7.966;2022-10-16T08:34:09;17.40;99.90
6106;DHT22;3083;51.508;7.966;2022-10-16T08:36:35;17.40;99.90
6106;DHT22;3083;51.508;7.966;2022-10-16T08:39:03;17.60;99.90
6106;DHT22;3083;51.508;7.966;2022-10-16T08:45:13;18.10;99.90
6106;DHT22;3083;51.508;7.966;2022-10-16T08:47:49;18.40;99.90
6106;DHT22;3083;51.508;7.966;2022-10-16T08:50:21;18.70;99.90
6106;DHT22;3083;51.508;7.966;2022-10-16T08:52:49;18.90;99.90
6106;DHT22;3083;51.508;7.966;2022-10-16T08:55:30;19.00;99.90
6106;DHT22;3083;51.508;7.966;2022-10-16T08:57:59;19.10;99.90
6106;DHT22;3083;51.508;7.966;2022-10-16T09:00:28;19.10;99.90
6106;DHT22;3083;51.508;7.966;2022-10-16T09:03:04;19.10;99.90
6106;DHT22;3083;51.508;7.966;2022-10-16T09:06:07;19.20;99.90
6106;DHT22;3083;51.508;7.966;2022-10-16T09:08:45;19.30;99.90
6106;DHT22;3083;51.508;7.966;2022-10-16T09:11:20;19.30;99.90
6106;DHT22;3083;51.508;7.966;2022-10-16T09:13:54;19.40;99.90
6106;DHT22;3083;51.508;7.966;2022-10-16T09:16:29;19.40;99.90
6106;DHT22;3083;51.508;7.966;2022-10-16T09:19:02;19.40;99.90
6106;DHT22;3083;51.508;7.966;2022-10-16T09:21:35;19.40;99.90
6106;DHT22;3083;51.508;7.966;2022-10-16T09:24:10;19.40;99.90
6106;DHT22;3083;51.508;7.966;2022-10-16T09:26:38;19.50;99.90
6106;DHT22;3083;51.508;7.966;2022-10-16T09:29:05;19.70;99.90
6106;DHT22;3083;51.508;7.966;2022-10-16T09:31:36;19.80;99.90
6106;DHT22;3083;51.508;7.966;2022-10-16T09:34:04;20.00;99.90
6106;DHT22;3083;51.508;7.966;2022-10-16T09:36:39;20.00;99.90
6106;DHT22;3083;51.508;7.966;2022-10-16T09:39:09;20.00;99.90
6106;DHT22;3083;51.508;7.966;2022-10-16T09:41:38;20.00;99.90
6106;DHT22;3083;51.508;7.966;2022-10-16T09:44:18;20.10;99.90
6106;DHT22;3083;51.508;7.966;2022-10-16T09:46:46;20.10;99.90
6106;DHT22;3083;51.508;7.966;2022-10-16T09:49:21;19.90;99.90
6106;DHT22;3083;51.508;7.966;2022-10-16T09:51:49;19.70;99.90
6106;DHT22;3083;51.508;7.966;2022-10-16T09:54:18;19.70;99.90
6106;DHT22;3083;51.508;7.966;2022-10-16T09:56:45;19.70;99.90
6106;DHT22;3083;51.508;7.966;2022-10-16T09:59:18;19.60;99.90
6106;DHT22;3083;51.508;7.966;2022-10-16T10:01:49;19.60;99.90
6106;DHT22;3083;51.508;7.966;2022-10-16T10:04:17;19.70;99.90
6106;DHT22;3083;51.508;7.966;2022-10-16T10:06:45;19.70;99.90
6106;DHT22;3083;51.508;7.966;2022-10-16T10:09:18;19.90;99.90
6106;DHT22;3083;51.508;7.966;2022-10-16T10:11:54;19.90;99.90
6106;DHT22;3083;51.508;7.966;2022-10-16T10:14:24;19.90;99.90
6106;DHT22;3083;51.508;7.966;2022-10-16T10:17:12;19.90;99.90
6106;DHT22;3083;51.508;7.966;2022-10-16T10:19:41;19.90;99.90
6106;DHT22;3083;51.508;7.966;2022-10-16T10:22:24;20.10;99.90
6106;DHT22;3083;51.508;7.966;2022-10-16T10:25:10;20.10;99.90
6106;DHT22;3083;51.508;7.966;2022-10-16T10:27:45;20.10;99.90
6106;DHT22;3083;51.508;7.966;2022-10-16T10:30:20;20.20;99.90
6106;DHT22;3083;51.508;7.966;2022-10-16T10:33:00;20.40;99.90
6106;DHT22;3083;51.508;7.966;2022-10-16T10:35:41;20.50;99.90
6106;DHT22;3083;51.508;7.966;2022-10-16T10:38:19;20.70;99.90
6106;DHT22;3083;51.508;7.966;2022-10-16T10:40:50;20.80;99.90
6106;DHT22;3083;51.508;7.966;2022-10-16T10:43:29;20.80;99.90
6106;DHT22;3083;51.508;7.966;2022-10-16T10:46:01;20.80;99.90
6106;DHT22;3083;51.508;7.966;2022-10-16T10:48:48;20.70;99.90
6106;DHT22;3083;51.508;7.966;2022-10-16T10:51:22;20.90;99.90
6106;DHT22;3083;51.508;7.966;2022-10-16T10:53:56;21.00;99.90
6106;DHT22;3083;51.508;7.966;2022-10-16T10:56:42;21.10;99.90
6106;DHT22;3083;51.508;7.966;2022-10-16T11:02:00;21.10;99.90
6106;DHT22;3083;51.508;7.966;2022-10-16T11:05:00;21.20;99.90
6106;DHT22;3083;51.508;7.966;2022-10-16T11:07:31;21.40;99.90
6106;DHT22;3083;51.508;7.966;2022-10-16T11:10:02;21.30;99.90
6106;DHT22;3083;51.508;7.966;2022-10-16T11:12:31;21.00;99.90
6106;DHT22;3083;51.508;7.966;2022-10-16T11:15:04;20.80;99.90
6106;DHT22;3083;51.508;7.966;2022-10-16T11:17:38;20.50;99.90
6106;DHT22;3083;51.508;7.966;2022-10-16T11:20:15;20.20;99.90
6106;DHT22;3083;51.508;7.966;2022-10-16T11:22:44;20.00;99.90
6106;DHT22;3083;51.508;7.966;2022-10-16T11:25:16;19.90;99.90
6106;DHT22;3083;51.508;7.966;2022-10-16T11:27:49;19.70;99.90
6106;DHT22;3083;51.508;7.966;2022-10-16T11:30:21;19.50;99.90
6106;DHT22;3083;51.508;7.966;2022-10-16T11:33:08;19.40;99.90
6106;DHT22;3083;51.508;7.966;2022-10-16T11:35:43;19.50;99.90
6106;DHT22;3083;51.508;7.966;2022-10-16T11:38:17;19.50;99.90
6106;DHT22;3083;51.508;7.966;2022-10-16T11:40:49;19.50;99.90
6106;DHT22;3083;51.508;7.966;2022-10-16T11:43:24;19.40;99.90
6106;DHT22;3083;51.508;7.966;2022-10-16T11:45:55;19.50;99.90
6106;DHT22;3083;51.508;7.966;2022-10-16T11:48:27;19.60;99.90
6106;DHT22;3083;51.508;7.966;2022-10-16T11:51:05;19.70;99.90
6106;DHT22;3083;51.508;7.966;2022-10-16T11:53:42;19.70;99.90
6106;DHT22;3083;51.508;7.966;2022-10-16T11:56:12;19.70;99.90
6106;DHT22;3083;51.508;7.966;2022-10-16T11:58:49;19.80;99.90
6106;DHT22;3083;51.508;7.966;2022-10-16T12:01:22;19.80;99.90
6106;DHT22;3083;51.508;7.966;2022-10-16T12:04:02;20.00;99.90
6106;DHT22;3083;51.508;7.966;2022-10-16T12:06:35;20.20;99.90
6106;DHT22;3083;51.508;7.966;2022-10-16T12:09:04;20.30;99.90
6106;DHT22;3083;51.508;7.966;2022-10-16T12:11:34;20.40;99.90
6106;DHT22;3083;51.508;7.966;2022-10-16T12:14:07;20.50;99.90
6106;DHT22;3083;51.508;7.966;2022-10-16T12:16:37;20.60;99.90
6106;DHT22;3083;51.508;7.966;2022-10-16T12:19:12;20.70;99.90
6106;DHT22;3083;51.508;7.966;2022-10-16T12:21:41;20.80;99.90
6106;DHT22;3083;51.508;7.966;2022-10-16T12:24:21;20.70;99.90
6106;DHT22;3083;51.508;7.966;2022-10-16T12:26:49;20.80;99.90
6106;DHT22;3083;51.508;7.966;2022-10-16T12:29:26;20.90;99.90
6106;DHT22;3083;51.508;7.966;2022-10-16T12:31:55;20.90;99.90
6106;DHT22;3083;51.508;7.966;2022-10-16T12:34:26;21.00;99.90
6106;DHT22;3083;51.508;7.966;2022-10-16T12:36:56;21.00;99.90
6106;DHT22;3083;51.508;7.966;2022-10-16T12:39:34;21.00;99.90
6106;DHT22;3083;51.508;7.966;2022-10-16T12:42:04;21.00;99.90
6106;DHT22;3083;51.508;7.966;2022-10-16T12:44:35;20.90;99.90
6106;DHT22;3083;51.508;7.966;2022-10-16T12:47:02;20.80;99.90
6106;DHT22;3083;51.508;7.966;2022-10-16T12:49:32;20.80;99.90
6106;DHT22;3083;51.508;7.966;2022-10-16T12:52:00;20.80;99.90
6106;DHT22;3083;51.508;7.966;2022-10-16T12:54:29;20.90;99.90
6106;DHT22;3083;51.508;7.966;2022-10-16T12:57:10;21.00;99.90
6106;DHT22;3083;51.508;7.966;2022-10-16T12:59:45;21.00;99.90
6106;DHT22;3083;51.508;7.966;2022-10-16T13:05:32;20.90;99.90
6106;DHT22;3083;51.508;7.966;2022-10-16T13:08:38;20.90;99.90
6106;DHT22;3083;51.508;7.966;2022-10-16T13:11:14;20.90;99.90
6106;DHT22;3083;51.508;7.966;2022-10-16T13:14:16;21.00;99.90
6106;DHT22;3083;51.508;7.966;2022-10-16T13:16:50;21.10;99.90
6106;DHT22;3083;51.508;7.966;2022-10-16T13:19:27;21.10;99.90
6106;DHT22;3083;51.508;7.966;2022-10-16T13:22:03;21.10;99.90
6106;DHT22;3083;51.508;7.966;2022-10-16T13:24:53;21.00;99.90
6106;DHT22;3083;51.508;7.966;2022-10-16T13:27:33;20.90;99.90
6106;DHT22;3083;51.508;7.966;2022-10-16T13:30:11;20.80;99.90
6106;DHT22;3083;51.508;7.966;2022-10-16T13:32:39;20.60;99.90
6106;DHT22;3083;51.508;7.966;2022-10-16T13:35:19;20.50;99.90
6106;DHT22;3083;51.508;7.966;2022-10-16T13:37:47;20.40;99.90
6106;DHT22;3083;51.508;7.966;2022-10-16T13:40:21;20.40;99.90
6106;DHT22;3083;51.508;7.966;2022-10-16T13:42:48;20.40;99.90
6106;DHT22;3083;51.508;7.966;2022-10-16T13:45:19;20.40;99.90
6106;DHT22;3083;51.508;7.966;2022-10-16T13:47:47;20.50;99.90
6106;DHT22;3083;51.508;7.966;2022-10-16T13:50:16;20.50;99.90
6106;DHT22;3083;51.508;7.966;2022-10-16T13:52:44;20.60;99.90
6106;DHT22;3083;51.508;7.966;2022-10-16T13:55:11;20.60;99.90
6106;DHT22;3083;51.508;7.966;2022-10-16T13:57:40;20.60;99.90
6106;DHT22;3083;51.508;7.966;2022-10-16T14:00:23;20.60;99.90
6106;DHT22;3083;51.508;7.966;2022-10-16T14:02:53;20.60;99.90
6106;DHT22;3083;51.508;7.966;2022-10-16T14:05:21;20.60;99.90
6106;DHT22;3083;51.508;7.966;2022-10-16T14:07:49;20.50;99.90
6106;DHT22;3083;51.508;7.966;2022-10-16T14:10:24;20.40;99.90
6106;DHT22;3083;51.508;7.966;2022-10-16T14:12:57;20.30;99.90
6106;DHT22;3083;51.508;7.966;2022-10-16T14:15:25;20.20;99.90
6106;DHT22;3083;51.508;7.966;2022-10-16T14:17:53;20.30;99.90
6106;DHT22;3083;51.508;7.966;2022-10-16T14:20:24;20.30;99.90
6106;DHT22;3083;51.508;7.966;2022-10-16T14:22:59;20.20;99.90
6106;DHT22;3083;51.508;7.966;2022-10-16T14:25:29;20.20;99.90
6106;DHT22;3083;51.508;7.966;2022-10-16T14:28:00;20.10;99.90
6106;DHT22;3083;51.508;7.966;2022-10-16T14:30:28;20.10;99.90
6106;DHT22;3083;51.508;7.966;2022-10-16T14:32:57;20.00;99.90
6106;DHT22;3083;51.508;7.966;2022-10-16T14:35:28;20.00;99.90
6106;DHT22;3083;51.508;7.966;2022-10-16T14:37:56;19.90;99.90
6106;DHT22;3083;51.508;7.966;2022-10-16T14:40:25;19.80;99.90
6106;DHT22;3083;51.508;7.966;2022-10-16T14:42:52;19.60;99.90
6106;DHT22;3083;51.508;7.966;2022-10-16T14:45:23;19.50;99.90
6106;DHT22;3083;51.508;7.966;2022-10-16T14:47:52;19.40;99.90
6106;DHT22;3083;51.508;7.966;2022-10-16T14:50:20;19.30;99.90
6106;DHT22;3083;51.508;7.966;2022-10-16T14:52:47;19.30;99.90
6106;DHT22;3083;51.508;7.966;2022-10-16T14:55:14;19.30;99.90
6106;DHT22;3083;51.508;7.966;2022-10-16T14:57:43;19.30;99.90
6106;DHT22;3083;51.508;7.966;2022-10-16T15:00:17;19.30;99.90
6106;DHT22;3083;51.508;7.966;2022-10-16T15:02:46;19.20;99.90
6106;DHT22;3083;51.508;7.966;2022-10-16T15:05:17;19.20;99.90
6106;DHT22;3083;51.508;7.966;2022-10-16T15:07:45;19.10;99.90
6106;DHT22;3083;51.508;7.966;2022-10-16T15:10:13;19.00;99.90
6106;DHT22;3083;51.508;7.966;2022-10-16T15:12:40;18.90;99.90
6106;DHT22;3083;51.508;7.966;2022-10-16T15:15:24;18.90;99.90
6106;DHT22;3083;51.508;7.966;2022-10-16T15:17:54;18.80;99.90
6106;DHT22;3083;51.508;7.966;2022-10-16T15:20:22;18.70;99.90
6106;DHT22;3083;51.508;7.966;2022-10-16T15:22:49;18.70;99.90
6106;DHT22;3083;51.508;7.966;2022-10-16T15:25:29;18.70;99.90
6106;DHT22;3083;51.508;7.966;2022-10-16T15:27:57;18.60;99.90
6106;DHT22;3083;51.508;7.966;2022-10-16T15:30:24;18.60;99.90
6106;DHT22;3083;51.508;7.966;2022-10-16T15:32:53;18.50;99.90
6106;DHT22;3083;51.508;7.966;2022-10-16T15:35:20;18.40;99.90
6106;DHT22;3083;51.508;7.966;2022-10-16T15:37:48;18.40;99.90
6106;DHT22;3083;51.508;7.966;2022-10-16T15:40:15;18.30;99.90
6106;DHT22;3083;51.508;7.966;2022-10-16T15:42:42;18.20;99.90
6106;DHT22;3083;51.508;7.966;2022-10-16T15:45:10;18.10;99.90
6106;DHT22;3083;51.508;7.966;2022-10-16T15:47:37;18.00;99.90
6106;DHT22;3083;51.508;7.966;2022-10-16T15:50:07;17.90;99.90
6106;DHT22;3083;51.508;7.966;2022-10-16T15:52:34;17.80;99.90
6106;DHT22;3083;51.508;7.966;2022-10-16T15:55:01;17.80;99.90
6106;DHT22;3083;51.508;7.966;2022-10-16T15:57:28;17.70;99.90
6106;DHT22;3083;51.508;7.966;2022-10-16T15:59:56;17.70;99.90
6106;DHT22;3083;51.508;7.966;2022-10-16T16:02:23;17.70;99.90
6106;DHT22;3083;51.508;7.966;2022-10-16T16:04:50;17.70;99.90
6106;DHT22;3083;51.508;7.966;2022-10-16T16:07:19;17.70;99.90
6106;DHT22;3083;51.508;7.966;2022-10-16T16:09:45;17.60;99.90
6106;DHT22;3083;51.508;7.966;2022-10-16T16:12:12;17.60;99.90
6106;DHT22;3083;51.508;7.966;2022-10-16T16:14:39;17.60;99.90
6106;DHT22;3083;51.508;7.966;2022-10-16T16:17:06;17.60;99.90
6106;DHT22;3083;51.508;7.966;2022-10-16T16:19:33;17.50;99.90
6106;DHT22;3083;51.508;7.966;2022-10-16T16:22:00;17.50;99.90
6106;DHT22;3083;51.508;7.966;2022-10-16T16:24:28;17.40;99.90
6106;DHT22;3083;51.508;7.966;2022-10-16T16:26:55;17.40;99.90
6106;DHT22;3083;51.508;7.966;2022-10-16T16:29:22;17.30;99.90
6106;DHT22;3083;51.508;7.966;2022-10-16T16:31:49;17.30;99.90